createdAt,value
2019-03-25T00:00:54.769Z,8.40
2019-03-25T00:03:25.653Z,8.30
2019-03-25T00:05:56.394Z,8.30
2019-03-25T00:08:27.153Z,8.30
2019-03-25T00:10:57.899Z,8.30
2019-03-25T00:13:28.571Z,8.30
2019-03-25T00:15:59.355Z,8.30
2019-03-25T00:18:30.136Z,8.30
2019-03-25T00:21:00.899Z,8.40
2019-03-25T00:23:31.716Z,8.40
2019-03-25T00:26:02.516Z,8.50
2019-03-25T00:28:33.215Z,8.50
2019-03-25T00:31:04.007Z,8.60
2019-03-25T00:33:34.686Z,8.60
2019-03-25T00:36:05.470Z,8.60
2019-03-25T00:38:36.399Z,8.60
2019-03-25T00:41:07.291Z,8.70
2019-03-25T00:43:37.999Z,8.70
2019-03-25T00:46:08.783Z,8.70
2019-03-25T00:48:39.582Z,8.70
2019-03-25T00:51:10.477Z,8.70
2019-03-25T00:53:41.254Z,8.70
2019-03-25T00:56:11.900Z,8.60
2019-03-25T00:58:42.614Z,8.60
2019-03-25T01:01:13.670Z,8.50
2019-03-25T01:03:44.508Z,8.40
2019-03-25T01:06:15.214Z,8.40
2019-03-25T01:08:46.054Z,8.40
2019-03-25T01:11:16.892Z,8.40
2019-03-25T01:13:47.717Z,8.30
2019-03-25T01:16:18.599Z,8.40
2019-03-25T01:18:49.458Z,8.40
2019-03-25T01:21:20.195Z,8.30
2019-03-25T01:23:51.059Z,8.30
2019-03-25T01:26:21.877Z,8.30
2019-03-25T01:28:52.658Z,8.30
2019-03-25T01:31:23.550Z,8.30
2019-03-25T01:33:54.390Z,8.30
2019-03-25T01:36:25.258Z,8.30
2019-03-25T01:38:56.024Z,8.30
2019-03-25T01:41:26.710Z,8.30
2019-03-25T01:43:57.439Z,8.30
2019-03-25T01:46:28.162Z,8.30
2019-03-25T01:48:58.898Z,8.30
2019-03-25T01:51:29.742Z,8.30
2019-03-25T01:54:00.592Z,8.30
2019-03-25T01:56:31.430Z,8.30
2019-03-25T01:59:02.242Z,8.40
2019-03-25T02:01:33.119Z,8.40
2019-03-25T02:04:03.984Z,8.30
2019-03-25T02:06:34.736Z,8.40
2019-03-25T02:09:07.538Z,8.40
2019-03-25T02:11:38.384Z,8.40
2019-03-25T02:14:09.234Z,8.40
2019-03-25T02:16:39.916Z,8.40
2019-03-25T02:19:10.688Z,8.40
2019-03-25T02:21:41.388Z,8.50
2019-03-25T02:24:12.359Z,8.50
2019-03-25T02:26:43.260Z,8.50
2019-03-25T02:29:14.131Z,8.50
2019-03-25T02:31:44.905Z,8.50
2019-03-25T02:34:15.660Z,8.50
2019-03-25T02:36:46.303Z,8.50
2019-03-25T02:39:16.951Z,8.50
2019-03-25T02:41:47.818Z,8.50
2019-03-25T02:44:18.559Z,8.60
2019-03-25T02:46:49.363Z,8.50
2019-03-25T02:49:20.111Z,8.60
2019-03-25T02:51:51.040Z,8.60
2019-03-25T02:54:21.800Z,8.50
2019-03-25T02:56:52.665Z,8.60
2019-03-25T02:59:23.341Z,8.60
2019-03-25T03:01:54.149Z,8.50
2019-03-25T03:04:24.770Z,8.60
2019-03-25T03:06:55.511Z,8.50
2019-03-25T03:09:26.258Z,8.60
2019-03-25T03:11:57.050Z,8.50
2019-03-25T03:14:27.828Z,8.50
2019-03-25T03:16:58.626Z,8.50
2019-03-25T03:19:29.557Z,8.40
2019-03-25T03:22:00.474Z,8.30
2019-03-25T03:24:31.277Z,8.30
2019-03-25T03:27:02.008Z,8.20
2019-03-25T03:29:33.037Z,8.30
2019-03-25T03:32:03.875Z,8.20
2019-03-25T03:34:34.670Z,8.20
2019-03-25T03:37:05.457Z,8.20
2019-03-25T03:39:36.289Z,8.10
2019-03-25T03:42:07.181Z,8.10
2019-03-25T03:44:38.043Z,8.10
2019-03-25T03:47:08.767Z,8.00
2019-03-25T03:49:39.720Z,7.70
2019-03-25T03:52:10.511Z,7.60
2019-03-25T03:54:41.369Z,7.70
2019-03-25T03:57:13.665Z,7.50
2019-03-25T03:59:45.018Z,7.40
2019-03-25T04:02:15.889Z,7.10
2019-03-25T04:04:46.680Z,7.10
2019-03-25T04:07:17.489Z,7.20
2019-03-25T04:09:48.291Z,6.90
2019-03-25T04:12:19.017Z,6.80
2019-03-25T04:14:49.753Z,6.70
2019-03-25T04:17:20.558Z,6.70
2019-03-25T04:19:51.420Z,6.70
2019-03-25T04:22:22.156Z,6.40
2019-03-25T04:24:52.951Z,6.40
2019-03-25T04:27:23.966Z,6.40
2019-03-25T04:29:54.641Z,6.30
2019-03-25T04:32:25.428Z,6.30
2019-03-25T04:34:56.209Z,6.40
2019-03-25T04:37:26.944Z,6.40
2019-03-25T04:39:57.665Z,6.40
2019-03-25T04:42:28.522Z,6.40
2019-03-25T04:44:59.313Z,6.40
2019-03-25T04:47:30.146Z,6.30
2019-03-25T04:50:00.897Z,6.30
2019-03-25T04:52:31.979Z,6.10
2019-03-25T04:55:02.615Z,6.10
2019-03-25T04:57:33.476Z,6.20
2019-03-25T05:00:04.338Z,5.90
2019-03-25T05:02:35.323Z,6.00
2019-03-25T05:05:06.684Z,6.00
2019-03-25T05:07:37.555Z,6.00
2019-03-25T05:10:08.514Z,6.00
2019-03-25T05:12:39.324Z,5.90
2019-03-25T05:15:10.399Z,5.90
2019-03-25T05:17:41.106Z,6.00
2019-03-25T05:20:11.900Z,6.00
2019-03-25T05:22:42.697Z,5.90
2019-03-25T05:25:13.497Z,5.70
2019-03-25T05:27:44.185Z,5.80
2019-03-25T05:30:15.099Z,5.90
2019-03-25T05:32:45.886Z,5.80
2019-03-25T05:35:16.738Z,5.80
2019-03-25T05:37:47.493Z,5.80
2019-03-25T05:40:18.342Z,5.80
2019-03-25T05:42:49.094Z,5.80
2019-03-25T05:45:19.897Z,5.80
2019-03-25T05:47:50.662Z,5.80
2019-03-25T05:50:21.517Z,5.80
2019-03-25T05:52:52.388Z,5.60
2019-03-25T05:55:23.271Z,5.60
2019-03-25T05:57:54.082Z,5.60
2019-03-25T06:00:27.607Z,5.50
2019-03-25T06:02:58.435Z,5.60
2019-03-25T06:05:29.265Z,5.60
2019-03-25T06:08:00.038Z,5.60
2019-03-25T06:10:30.925Z,5.50
2019-03-25T06:13:01.861Z,5.50
2019-03-25T06:15:32.638Z,5.50
2019-03-25T06:18:03.371Z,5.70
2019-03-25T06:20:34.361Z,5.40
2019-03-25T06:23:05.097Z,5.40
2019-03-25T06:25:36.726Z,5.50
2019-03-25T06:28:07.412Z,5.40
2019-03-25T06:30:38.269Z,5.50
2019-03-25T06:33:12.594Z,5.50
2019-03-25T06:35:41.406Z,5.60
2019-03-25T06:38:12.095Z,5.70
2019-03-25T06:40:42.944Z,5.90
2019-03-25T06:43:13.698Z,5.80
2019-03-25T06:45:44.452Z,5.80
2019-03-25T06:48:15.217Z,5.70
2019-03-25T06:50:45.944Z,5.40
2019-03-25T06:53:16.841Z,5.60
2019-03-25T06:55:47.654Z,5.80
2019-03-25T06:58:18.476Z,5.80
2019-03-25T07:00:49.227Z,5.70
2019-03-25T07:03:20.046Z,5.70
2019-03-25T07:05:51.128Z,5.80
2019-03-25T07:08:21.974Z,5.90
2019-03-25T07:10:52.687Z,5.90
2019-03-25T07:13:23.784Z,5.90
2019-03-25T07:15:54.643Z,5.90
2019-03-25T07:18:25.566Z,5.90
2019-03-25T07:20:56.366Z,6.10
2019-03-25T07:23:27.166Z,6.30
2019-03-25T07:25:57.974Z,6.40
2019-03-25T07:28:28.693Z,6.50
2019-03-25T07:30:59.599Z,6.60
2019-03-25T07:33:31.568Z,6.30
2019-03-25T07:36:02.333Z,6.30
2019-03-25T07:38:33.175Z,6.30
2019-03-25T07:41:03.856Z,6.60
2019-03-25T07:43:34.676Z,6.70
2019-03-25T07:46:05.400Z,6.80
2019-03-25T07:48:36.124Z,6.90
2019-03-25T07:51:06.904Z,7.00
2019-03-25T07:53:37.758Z,7.10
2019-03-25T07:56:08.535Z,7.20
2019-03-25T07:58:39.411Z,7.30
2019-03-25T08:01:10.236Z,7.30
2019-03-25T08:03:40.968Z,7.40
2019-03-25T08:06:11.850Z,7.40
2019-03-25T08:08:42.693Z,7.30
2019-03-25T08:11:13.589Z,7.30
2019-03-25T08:13:44.376Z,7.40
2019-03-25T08:16:15.197Z,7.50
2019-03-25T08:18:46.016Z,7.70
2019-03-25T08:21:16.872Z,7.70
2019-03-25T08:23:47.633Z,7.80
2019-03-25T08:26:18.380Z,7.90
2019-03-25T08:28:49.282Z,8.00
2019-03-25T08:31:20.150Z,8.00
2019-03-25T08:33:50.806Z,7.90
2019-03-25T08:36:21.647Z,7.90
2019-03-25T08:38:52.454Z,8.00
2019-03-25T08:41:23.394Z,7.70
2019-03-25T08:43:54.191Z,7.70
2019-03-25T08:46:24.902Z,7.60
2019-03-25T08:48:55.684Z,7.60
2019-03-25T08:51:26.462Z,7.60
2019-03-25T08:53:57.136Z,7.60
2019-03-25T08:56:27.918Z,7.60
2019-03-25T08:58:58.680Z,7.60
2019-03-25T09:01:29.419Z,7.70
2019-03-25T09:04:00.219Z,7.80
2019-03-25T09:06:31.060Z,7.80
2019-03-25T09:09:01.822Z,7.90
2019-03-25T09:11:32.689Z,7.90
2019-03-25T09:14:03.489Z,7.80
2019-03-25T09:16:34.345Z,7.90
2019-03-25T09:19:05.179Z,7.70
2019-03-25T09:21:36.043Z,7.80
2019-03-25T09:24:06.963Z,7.70
2019-03-25T09:26:37.776Z,7.70
2019-03-25T09:29:08.643Z,7.80
2019-03-25T09:31:39.481Z,7.80
2019-03-25T09:34:10.428Z,7.70
2019-03-25T09:36:41.193Z,7.90
2019-03-25T09:39:12.123Z,7.80
2019-03-25T09:41:42.877Z,7.70
2019-03-25T09:44:13.635Z,7.70
2019-03-25T09:46:44.315Z,7.80
2019-03-25T09:49:15.229Z,7.90
2019-03-25T09:51:45.917Z,7.90
2019-03-25T09:54:16.616Z,8.00
2019-03-25T09:56:47.268Z,8.00
2019-03-25T09:59:18.046Z,8.10
2019-03-25T10:01:48.740Z,8.00
2019-03-25T10:04:20.211Z,7.80
2019-03-25T10:06:51.298Z,8.00
2019-03-25T10:09:22.018Z,8.10
2019-03-25T10:11:52.864Z,8.10
2019-03-25T10:14:23.695Z,8.20
2019-03-25T10:16:54.758Z,8.30
2019-03-25T10:19:25.615Z,8.40
2019-03-25T10:21:56.445Z,8.30
2019-03-25T10:24:28.060Z,8.40
2019-03-25T10:26:59.126Z,8.50
2019-03-25T10:29:29.876Z,8.50
2019-03-25T10:32:00.610Z,8.60
2019-03-25T10:34:31.416Z,8.70
2019-03-25T10:37:02.140Z,8.70
2019-03-25T10:39:32.829Z,8.70
2019-03-25T10:42:03.699Z,8.70
2019-03-25T10:44:35.689Z,8.60
2019-03-25T10:47:06.420Z,8.60
2019-03-25T10:49:37.109Z,8.60
2019-03-25T10:52:07.889Z,8.60
2019-03-25T10:54:38.764Z,8.60
2019-03-25T10:57:09.679Z,8.60
2019-03-25T10:59:40.400Z,8.60
2019-03-25T11:02:11.239Z,8.50
2019-03-25T11:04:42.158Z,8.50
2019-03-25T11:07:14.083Z,8.30
2019-03-25T11:09:44.860Z,8.20
2019-03-25T11:12:15.694Z,8.10
2019-03-25T11:14:46.445Z,8.00
2019-03-25T11:17:17.221Z,7.90
2019-03-25T11:19:48.101Z,7.70
2019-03-25T11:22:18.837Z,7.60
2019-03-25T11:24:49.689Z,7.40
2019-03-25T11:27:20.523Z,7.40
2019-03-25T11:29:51.298Z,7.30
2019-03-25T11:32:22.177Z,7.10
2019-03-25T11:34:52.983Z,7.20
2019-03-25T11:37:23.714Z,7.00
2019-03-25T11:39:54.637Z,7.10
2019-03-25T11:42:25.433Z,7.10
2019-03-25T11:44:56.243Z,7.20
2019-03-25T11:47:26.957Z,7.20
2019-03-25T11:49:57.782Z,7.40
2019-03-25T11:52:28.589Z,7.50
2019-03-25T11:54:59.394Z,7.70
2019-03-25T11:57:30.154Z,8.00
2019-03-25T12:00:00.902Z,8.20
2019-03-25T12:02:31.706Z,8.40
2019-03-25T12:05:02.360Z,8.70
2019-03-25T12:07:33.121Z,8.80
2019-03-25T12:10:04.194Z,8.90
2019-03-25T12:12:35.117Z,8.90
2019-03-25T12:15:06.915Z,8.80
2019-03-25T12:17:37.658Z,8.80
2019-03-25T12:20:08.798Z,8.70
2019-03-25T12:22:39.555Z,8.30
2019-03-25T12:25:10.371Z,8.20
2019-03-25T12:27:41.176Z,8.20
2019-03-25T12:30:12.408Z,7.90
2019-03-25T12:32:43.266Z,7.80
2019-03-25T12:35:14.113Z,7.80
2019-03-25T12:37:44.870Z,7.40
2019-03-25T12:40:15.706Z,6.90
2019-03-25T12:42:46.420Z,6.90
2019-03-25T12:45:17.242Z,7.00
2019-03-25T12:47:48.019Z,7.10
2019-03-25T12:50:19.181Z,7.10
2019-03-25T12:52:49.963Z,7.20
2019-03-25T12:55:20.760Z,7.50
2019-03-25T12:57:51.572Z,7.90
2019-03-25T13:00:36.950Z,8.10
2019-03-25T13:03:07.844Z,8.60
2019-03-25T13:05:38.843Z,9.10
2019-03-25T13:08:09.671Z,9.60
2019-03-25T13:10:40.514Z,9.90
2019-03-25T13:13:11.229Z,10.40
2019-03-25T13:15:42.149Z,10.90
2019-03-25T13:18:13.003Z,11.30
2019-03-25T13:20:43.852Z,11.90
2019-03-25T13:23:14.709Z,12.30
2019-03-25T13:25:45.489Z,12.70
2019-03-25T13:28:16.305Z,13.40
2019-03-25T13:30:47.082Z,14.10
2019-03-25T13:33:17.878Z,14.80
2019-03-25T13:35:48.704Z,14.40
2019-03-25T13:38:19.574Z,14.30
2019-03-25T13:40:50.393Z,13.60
2019-03-25T13:43:21.261Z,13.60
2019-03-25T13:45:51.973Z,12.40
2019-03-25T13:48:22.726Z,12.30
2019-03-25T13:50:53.595Z,12.60
2019-03-25T13:53:24.365Z,13.00
2019-03-25T13:55:55.177Z,13.20
2019-03-25T13:58:25.891Z,13.40
2019-03-25T14:00:56.742Z,13.10
2019-03-25T14:03:27.520Z,13.00
2019-03-25T14:05:58.271Z,12.90
2019-03-25T14:08:29.028Z,12.50
2019-03-25T14:10:59.901Z,12.30
2019-03-25T14:13:30.693Z,11.70
2019-03-25T14:16:01.535Z,11.20
2019-03-25T14:18:32.250Z,10.60
2019-03-25T14:21:03.108Z,10.30
2019-03-25T14:23:33.987Z,9.90
2019-03-25T14:26:04.719Z,9.70
2019-03-25T14:28:35.609Z,9.50
2019-03-25T14:31:06.454Z,9.30
2019-03-25T14:33:37.283Z,9.00
2019-03-25T14:36:08.033Z,8.70
2019-03-25T14:38:38.868Z,8.50
2019-03-25T14:41:09.764Z,8.30
2019-03-25T14:43:40.536Z,8.20
2019-03-25T14:46:11.346Z,8.20
2019-03-25T14:48:42.070Z,8.30
2019-03-25T14:51:12.758Z,8.50
2019-03-25T14:53:45.132Z,8.40
2019-03-25T14:56:16.075Z,8.50
2019-03-25T14:58:47.012Z,8.60
2019-03-25T15:01:17.943Z,8.60
2019-03-25T15:03:48.702Z,8.70
2019-03-25T15:06:19.538Z,8.80
2019-03-25T15:08:50.383Z,9.00
2019-03-25T15:11:21.205Z,9.30
2019-03-25T15:13:51.915Z,9.50
2019-03-25T15:16:22.731Z,9.70
2019-03-25T15:18:53.486Z,9.80
2019-03-25T15:21:24.305Z,9.90
2019-03-25T15:23:54.995Z,9.90
2019-03-25T15:26:25.758Z,9.80
2019-03-25T15:28:56.622Z,9.50
2019-03-25T15:31:27.323Z,9.40
2019-03-25T15:33:58.146Z,9.20
2019-03-25T15:36:29.024Z,9.00
2019-03-25T15:38:59.721Z,8.70
2019-03-25T15:41:30.494Z,8.60
2019-03-25T15:44:01.293Z,8.50
2019-03-25T15:46:32.149Z,8.40
2019-03-25T15:49:02.918Z,8.20
2019-03-25T15:51:52.607Z,8.20
2019-03-25T15:54:26.246Z,8.20
2019-03-25T15:56:57.019Z,8.20
2019-03-25T15:59:27.808Z,8.20
2019-03-25T16:01:58.745Z,8.10
2019-03-25T16:04:29.515Z,8.00
2019-03-25T16:07:00.271Z,8.10
2019-03-25T16:09:31.016Z,8.10
2019-03-25T16:12:01.963Z,8.20
2019-03-25T16:14:32.725Z,8.30
2019-03-25T16:17:03.466Z,8.40
2019-03-25T16:19:36.649Z,8.50
2019-03-25T16:22:07.406Z,8.60
2019-03-25T16:24:38.199Z,8.60
2019-03-25T16:27:09.006Z,8.70
2019-03-25T16:29:39.879Z,8.70
2019-03-25T16:32:11.015Z,8.70
2019-03-25T16:34:41.958Z,8.70
2019-03-25T16:37:12.701Z,8.80
2019-03-25T16:39:43.471Z,8.80
2019-03-25T16:42:14.260Z,8.80
2019-03-25T16:44:45.176Z,8.80
2019-03-25T16:47:15.914Z,8.80
2019-03-25T16:49:46.668Z,8.80
2019-03-25T16:52:17.498Z,8.80
2019-03-25T16:54:48.366Z,8.80
2019-03-25T16:57:19.146Z,8.80
2019-03-25T16:59:49.956Z,8.80
2019-03-25T17:02:20.761Z,8.70
2019-03-25T17:04:52.506Z,8.70
2019-03-25T17:07:23.334Z,8.70
2019-03-25T17:09:54.212Z,8.60
2019-03-25T17:12:24.948Z,8.50
2019-03-25T17:14:55.736Z,8.50
2019-03-25T17:17:26.617Z,8.50
2019-03-25T17:19:57.356Z,8.40
2019-03-25T17:22:28.234Z,8.40
2019-03-25T17:24:59.030Z,8.30
2019-03-25T17:27:29.891Z,8.30
2019-03-25T17:30:00.711Z,8.20
2019-03-25T17:32:31.550Z,8.20
2019-03-25T17:35:02.437Z,8.10
2019-03-25T17:37:33.255Z,8.10
2019-03-25T17:40:04.470Z,8.10
2019-03-25T17:42:35.279Z,8.00
2019-03-25T17:45:06.808Z,7.90
2019-03-25T17:47:37.540Z,7.90
2019-03-25T17:50:08.840Z,7.80
2019-03-25T17:52:39.598Z,7.80
2019-03-25T17:55:10.458Z,7.70
2019-03-25T17:57:41.243Z,7.70
2019-03-25T18:00:12.578Z,7.50
2019-03-25T18:02:43.297Z,7.50
2019-03-25T18:05:14.270Z,7.50
2019-03-25T18:07:45.095Z,7.50
2019-03-25T18:10:15.935Z,7.50
2019-03-25T18:12:46.743Z,7.50
2019-03-25T18:15:17.494Z,7.40
2019-03-25T18:17:48.370Z,7.30
2019-03-25T18:20:19.229Z,7.40
2019-03-25T18:22:49.994Z,7.40
2019-03-25T18:25:20.770Z,7.40
2019-03-25T18:27:51.663Z,7.40
2019-03-25T18:30:30.959Z,7.40
2019-03-25T18:33:01.882Z,7.40
2019-03-25T18:35:32.735Z,7.40
2019-03-25T18:38:03.592Z,7.40
2019-03-25T18:40:34.433Z,7.40
2019-03-25T18:43:05.318Z,7.40
2019-03-25T18:45:36.229Z,7.40
2019-03-25T18:48:07.070Z,7.40
2019-03-25T18:50:37.891Z,7.40
2019-03-25T18:53:08.640Z,7.40
2019-03-25T18:55:39.607Z,7.40
2019-03-25T18:58:10.405Z,7.40
2019-03-25T19:00:41.293Z,7.40
2019-03-25T19:03:12.091Z,7.40
2019-03-25T19:05:43.035Z,7.40
2019-03-25T19:08:13.822Z,7.50
2019-03-25T19:10:44.807Z,7.50
2019-03-25T19:13:15.737Z,7.50
2019-03-25T19:15:46.604Z,7.40
2019-03-25T19:18:17.469Z,7.40
2019-03-25T19:20:48.344Z,7.40
2019-03-25T19:23:19.284Z,7.30
2019-03-25T19:25:50.056Z,7.30
2019-03-25T19:28:20.939Z,7.30
2019-03-25T19:30:51.787Z,7.30
2019-03-25T19:33:22.607Z,7.20
2019-03-25T19:35:53.423Z,7.20
2019-03-25T19:38:24.354Z,7.20
2019-03-25T19:40:55.483Z,7.20
2019-03-25T19:43:26.283Z,7.10
2019-03-25T19:45:57.188Z,7.10
2019-03-25T19:48:27.977Z,7.10
2019-03-25T19:50:58.831Z,7.10
2019-03-25T19:53:29.649Z,7.00
2019-03-25T19:56:00.499Z,7.00
2019-03-25T19:58:31.234Z,6.90
2019-03-25T20:01:02.045Z,6.90
2019-03-25T20:03:33.162Z,6.90
2019-03-25T20:06:04.183Z,6.90
2019-03-25T20:08:35.012Z,6.80
2019-03-25T20:11:05.955Z,6.80
2019-03-25T20:13:37.813Z,6.80
2019-03-25T20:16:08.630Z,6.80
2019-03-25T20:18:39.440Z,6.70
2019-03-25T20:21:10.216Z,6.70
2019-03-25T20:23:41.072Z,6.70
2019-03-25T20:26:12.267Z,6.70
2019-03-25T20:28:43.123Z,6.60
2019-03-25T20:31:13.875Z,6.60
2019-03-25T20:33:44.646Z,6.60
2019-03-25T20:36:15.376Z,6.60
2019-03-25T20:38:49.518Z,6.60
2019-03-25T20:41:18.752Z,6.60
2019-03-25T20:43:49.666Z,6.60
2019-03-25T20:46:20.654Z,6.60
2019-03-25T20:48:51.465Z,6.60
2019-03-25T20:51:22.352Z,6.60
2019-03-25T20:53:53.199Z,6.60
2019-03-25T20:56:24.287Z,6.60
2019-03-25T20:58:55.181Z,6.60
2019-03-25T21:01:26.182Z,6.60
2019-03-25T21:03:57.013Z,6.50
2019-03-25T21:06:28.005Z,6.50
2019-03-25T21:08:58.845Z,6.40
2019-03-25T21:11:29.768Z,6.40
2019-03-25T21:14:00.544Z,6.30
2019-03-25T21:16:31.408Z,6.30
2019-03-25T21:19:02.300Z,6.30
2019-03-25T21:21:33.160Z,6.30
2019-03-25T21:24:04.080Z,6.30
2019-03-25T21:26:34.899Z,6.20
2019-03-25T21:29:05.835Z,6.20
2019-03-25T21:31:39.012Z,6.20
2019-03-25T21:34:09.103Z,6.20
2019-03-25T21:36:39.875Z,6.20
2019-03-25T21:39:10.752Z,6.30
2019-03-25T21:41:41.570Z,6.20
2019-03-25T21:44:12.481Z,6.10
2019-03-25T21:46:43.435Z,6.10
2019-03-25T21:49:14.301Z,6.10
2019-03-25T21:51:45.193Z,6.10
2019-03-25T21:54:15.954Z,6.00
2019-03-25T21:56:46.909Z,6.00
2019-03-25T21:59:17.686Z,6.00
2019-03-25T22:01:48.573Z,6.00
2019-03-25T22:04:19.357Z,6.00
2019-03-25T22:06:50.136Z,5.90
2019-03-25T22:09:20.836Z,5.80
2019-03-25T22:11:51.751Z,5.80
2019-03-25T22:14:22.521Z,5.70
2019-03-25T22:16:53.347Z,5.70
2019-03-25T22:19:24.099Z,5.60
2019-03-25T22:21:55.018Z,5.60
2019-03-25T22:24:25.814Z,5.50
2019-03-25T22:26:56.652Z,5.60
2019-03-25T22:29:27.506Z,5.50
2019-03-25T22:31:58.286Z,5.50
2019-03-25T22:34:29.155Z,5.40
2019-03-25T22:36:59.901Z,5.40
2019-03-25T22:39:30.716Z,5.30
2019-03-25T22:42:01.803Z,5.30
2019-03-25T22:44:32.640Z,5.20
2019-03-25T22:47:03.338Z,5.10
2019-03-25T22:49:34.193Z,5.10
2019-03-25T22:52:05.001Z,5.10
2019-03-25T22:54:35.762Z,5.00
2019-03-25T22:57:06.599Z,4.90
2019-03-25T22:59:37.375Z,4.80
2019-03-25T23:02:08.475Z,4.70
2019-03-25T23:04:39.327Z,4.70
2019-03-25T23:07:10.145Z,4.70
2019-03-25T23:09:40.988Z,4.60
2019-03-25T23:12:11.795Z,4.50
2019-03-25T23:14:42.543Z,4.60
2019-03-25T23:17:13.379Z,4.50
2019-03-25T23:19:44.149Z,4.50
2019-03-25T23:22:15.019Z,4.40
2019-03-25T23:24:45.848Z,4.30
2019-03-25T23:27:16.598Z,4.30
2019-03-25T23:29:47.390Z,4.20
2019-03-25T23:32:18.234Z,4.20
2019-03-25T23:34:49.121Z,4.20
2019-03-25T23:37:19.897Z,4.20
2019-03-25T23:39:50.725Z,4.10
2019-03-25T23:42:21.428Z,4.10
2019-03-25T23:44:52.339Z,4.10
2019-03-25T23:47:23.062Z,4.20
2019-03-25T23:49:53.903Z,4.10
2019-03-25T23:52:24.607Z,4.10
2019-03-25T23:54:55.288Z,4.10
2019-03-25T23:57:25.969Z,4.10
2019-03-25T23:59:56.828Z,3.90
